Main page
METAR-TAF:

METAR-TAF

Airports :

Turin Airport

Turin, Italy

latitude: 45-13N, longitude: 007-39E, elevation: 301 m

Current weather observation

The report was made 11 minutes ago, at 18:50 UTC
Wind 2 kt from variable directions
Temperature 10°C
Humidity 25%
Pressure 1019 hPa
Visibility 10 km or more
no clouds below 1500 m and no cumulonimbus

METAR: LIMF 281850Z VRB02KT CAVOK 10/M09 Q1019

Time: 20:01 (19:01 UTC)

Forecast

The report was made 2 hours and 1 minutes ago, at 17:00 UTC
Forecast valid from 28 at 18 UTC to 29 at 18 UTC
Wind 5 kt from variable directions
Visibility 10 km or more
no clouds below 1500 m and no cumulonimbus
Becoming
from 29 at 12 UTC to 29 at 14 UTC
Broken clouds at a height of 3000 ft
rain

TAF: LIMF 281700Z 2818/2918 VRB05KT CAVOK BECMG 2912/2914 RA BKN030

Weather observations and forecasts of more than 4000 airports (METAR and TAF reports).

The available stations are represented by yellow and red dots on the map.

Hover mouse over dot to see the name of the station.

Then click to see weather observations and forecasts.

To change the map : click on the green buttons with a black cross to zoom in, on the green button with a dash to zoom out, or on the green arrows for adjacent maps.


METAR-TAF: